createdAt,value
2023-01-04T00:01:21.462Z,74.29
2023-01-04T00:03:48.581Z,73.95
2023-01-04T00:06:17.115Z,73.94
2023-01-04T00:08:44.336Z,74.03
2023-01-04T00:11:14.258Z,73.93
2023-01-04T00:13:41.420Z,73.75
2023-01-04T00:16:13.849Z,74.06
2023-01-04T00:18:41.192Z,73.95
2023-01-04T00:21:16.869Z,73.81
2023-01-04T00:23:47.190Z,73.86
2023-01-04T00:26:23.181Z,73.77
2023-01-04T00:29:14.404Z,73.73
2023-01-04T00:31:41.695Z,73.50
2023-01-04T00:34:13.235Z,73.75
2023-01-04T00:36:40.936Z,73.72
2023-01-04T00:39:11.118Z,73.81
2023-01-04T00:44:29.899Z,73.28
2023-01-04T00:46:57.273Z,73.27
2023-01-04T00:49:24.448Z,73.22
2023-01-04T00:51:51.572Z,73.19
2023-01-04T00:54:18.969Z,73.12
2023-01-04T00:56:46.380Z,73.26
2023-01-04T00:59:15.689Z,73.21
2023-01-04T01:01:43.519Z,73.19
2023-01-04T01:04:13.903Z,73.05
2023-01-04T01:06:41.558Z,73.11
2023-01-04T01:09:09.654Z,73.41
2023-01-04T01:11:40.375Z,73.16
2023-01-04T01:14:16.602Z,73.37
2023-01-04T01:16:59.189Z,73.28
2023-01-04T01:19:28.543Z,73.38
2023-01-04T01:21:57.436Z,73.38
2023-01-04T01:24:24.687Z,73.37
2023-01-04T01:26:51.773Z,73.04
2023-01-04T01:29:18.813Z,73.31
2023-01-04T01:31:45.899Z,72.95
2023-01-04T01:34:12.978Z,73.38
2023-01-04T01:36:39.993Z,73.30
2023-01-04T01:39:07.082Z,72.94
2023-01-04T01:41:35.369Z,73.33
2023-01-04T01:44:04.388Z,73.26
2023-01-04T01:46:37.282Z,73.10
2023-01-04T01:49:13.557Z,73.18
2023-01-04T01:51:41.795Z,73.13
2023-01-04T01:54:16.913Z,73.05
2023-01-04T01:56:46.624Z,72.68
2023-01-04T01:59:14.626Z,72.88
2023-01-04T02:01:41.825Z,73.24
2023-01-04T02:04:09.310Z,72.88
2023-01-04T02:06:42.364Z,73.09
2023-01-04T02:09:09.966Z,73.00
2023-01-04T02:11:36.986Z,73.26
2023-01-04T02:14:25.513Z,73.06
2023-01-04T02:17:11.067Z,73.18
2023-01-04T02:19:47.326Z,73.55
2023-01-04T02:22:56.271Z,73.74
2023-01-04T02:25:41.527Z,73.84
2023-01-04T02:28:45.184Z,73.74
2023-01-04T02:31:34.041Z,73.87
2023-01-04T02:34:22.166Z,73.52
2023-01-04T02:36:49.088Z,73.46
2023-01-04T02:39:36.525Z,73.59
2023-01-04T02:42:16.725Z,73.35
2023-01-04T02:45:07.624Z,73.31
2023-01-04T02:47:55.407Z,73.39
2023-01-04T02:50:36.015Z,73.55
2023-01-04T02:53:15.108Z,73.39
2023-01-04T02:55:54.447Z,73.47
2023-01-04T02:58:48.724Z,73.43
2023-01-04T03:01:39.650Z,73.63
2023-01-04T03:04:34.933Z,73.39
2023-01-04T03:07:17.542Z,72.98
2023-01-04T03:09:49.065Z,73.63
2023-01-04T03:12:36.142Z,73.47
2023-01-04T03:15:16.598Z,73.60
2023-01-04T03:17:49.824Z,73.61
2023-01-04T03:20:21.246Z,73.79
2023-01-04T03:23:23.638Z,74.10
2023-01-04T03:26:16.538Z,74.00
2023-01-04T03:29:03.705Z,74.20
2023-01-04T03:31:52.796Z,73.64
2023-01-04T03:34:39.011Z,72.98
2023-01-04T03:37:26.972Z,73.61
2023-01-04T03:40:31.083Z,73.81
2023-01-04T03:43:45.705Z,73.60
2023-01-04T03:46:40.491Z,73.77
2023-01-04T03:49:13.444Z,73.65
2023-01-04T03:51:41.265Z,73.57
2023-01-04T03:54:33.174Z,73.93
2023-01-04T03:57:01.671Z,73.78
2023-01-04T03:59:28.925Z,73.89
2023-01-04T04:01:56.749Z,73.81
2023-01-04T04:04:42.471Z,73.38
2023-01-04T04:07:28.064Z,73.61
2023-01-04T04:09:55.085Z,73.70
2023-01-04T04:12:22.103Z,73.65
2023-01-04T04:14:49.166Z,73.31
2023-01-04T04:17:16.251Z,73.48
2023-01-04T04:19:43.164Z,73.26
2023-01-04T04:22:10.288Z,73.41
2023-01-04T04:24:37.365Z,73.83
2023-01-04T04:27:04.449Z,73.64
2023-01-04T04:29:31.543Z,74.03
2023-01-04T04:31:58.719Z,73.98
2023-01-04T04:34:25.745Z,73.91
2023-01-04T04:36:52.851Z,73.88
2023-01-04T04:39:19.928Z,73.94
2023-01-04T04:41:46.932Z,73.87
2023-01-04T04:44:17.044Z,73.86
2023-01-04T04:46:45.187Z,73.71
2023-01-04T04:49:13.804Z,73.80
2023-01-04T04:51:42.029Z,73.69
2023-01-04T04:54:10.161Z,73.46
2023-01-04T04:56:37.569Z,73.71
2023-01-04T04:59:05.307Z,73.74
2023-01-04T05:01:33.033Z,73.66
2023-01-04T05:04:00.069Z,73.29
2023-01-04T05:06:27.566Z,73.40
2023-01-04T05:08:54.704Z,73.35
2023-01-04T05:11:41.675Z,73.28
2023-01-04T05:14:10.125Z,73.21
2023-01-04T05:16:37.604Z,73.21
2023-01-04T05:19:04.869Z,73.26
2023-01-04T05:21:32.109Z,73.02
2023-01-04T05:23:59.257Z,72.92
2023-01-04T05:26:26.575Z,73.10
2023-01-04T05:28:54.397Z,72.70
2023-01-04T05:31:22.321Z,72.72
2023-01-04T05:33:49.702Z,72.57
2023-01-04T05:36:17.020Z,73.17
2023-01-04T05:38:44.385Z,73.39
2023-01-04T05:41:30.222Z,73.10
2023-01-04T05:43:57.495Z,73.50
2023-01-04T05:46:25.017Z,73.64
2023-01-04T05:48:52.295Z,73.65
2023-01-04T05:51:19.495Z,73.68
2023-01-04T05:53:46.779Z,73.38
2023-01-04T05:56:13.986Z,73.29
2023-01-04T05:58:41.222Z,73.32
2023-01-04T06:01:08.505Z,73.24
2023-01-04T06:03:35.846Z,73.48
2023-01-04T06:06:03.223Z,73.17
2023-01-04T06:08:30.462Z,73.50
2023-01-04T06:10:57.695Z,73.06
2023-01-04T06:13:24.895Z,72.98
2023-01-04T06:15:52.136Z,73.03
2023-01-04T06:18:19.425Z,72.69
2023-01-04T06:20:46.612Z,73.00
2023-01-04T06:23:14.462Z,72.79
2023-01-04T06:25:41.736Z,73.06
2023-01-04T06:28:09.099Z,72.97
2023-01-04T06:30:36.516Z,73.12
2023-01-04T06:33:03.856Z,72.84
2023-01-04T06:35:30.942Z,73.03
2023-01-04T06:37:58.195Z,73.02
2023-01-04T06:40:25.455Z,72.99
2023-01-04T06:42:52.617Z,73.20
2023-01-04T06:45:19.734Z,73.41
2023-01-04T06:47:48.454Z,73.37
2023-01-04T06:50:15.737Z,73.37
2023-01-04T06:52:43.508Z,73.29
2023-01-04T06:55:10.863Z,73.28
2023-01-04T06:57:38.267Z,73.55
2023-01-04T07:00:07.178Z,73.05
2023-01-04T07:02:34.582Z,72.76
2023-01-04T07:05:02.691Z,72.71
2023-01-04T07:07:30.148Z,72.63
2023-01-04T07:09:57.416Z,72.89
2023-01-04T07:12:24.662Z,72.74
2023-01-04T07:14:52.296Z,72.92
2023-01-04T07:17:22.403Z,72.97
2023-01-04T07:19:52.377Z,72.65
2023-01-04T07:22:19.615Z,73.00
2023-01-04T07:24:46.852Z,72.83
2023-01-04T07:27:14.056Z,73.04
2023-01-04T07:29:44.272Z,73.22
2023-01-04T07:32:13.947Z,72.87
2023-01-04T07:34:41.677Z,73.27
2023-01-04T07:37:11.815Z,73.12
2023-01-04T07:39:39.262Z,73.31
2023-01-04T07:42:06.516Z,73.66
2023-01-04T07:44:34.098Z,73.01
2023-01-04T07:47:01.335Z,72.78
2023-01-04T07:49:28.614Z,73.25
2023-01-04T07:51:55.779Z,73.30
2023-01-04T07:54:24.717Z,73.33
2023-01-04T07:56:52.385Z,73.31
2023-01-04T07:59:22.139Z,73.59
2023-01-04T08:01:51.252Z,73.80
2023-01-04T08:04:18.825Z,73.91
2023-01-04T08:06:47.015Z,73.56
2023-01-04T08:09:14.336Z,73.38
2023-01-04T08:11:41.816Z,73.29
2023-01-04T08:14:09.138Z,73.31
2023-01-04T08:16:39.138Z,73.11
2023-01-04T08:19:12.135Z,73.03
2023-01-04T08:21:39.740Z,73.42
2023-01-04T08:24:07.337Z,73.94
2023-01-04T08:26:34.615Z,73.90
2023-01-04T08:29:02.096Z,74.19
2023-01-04T08:31:31.809Z,74.14
2023-01-04T08:34:01.424Z,73.92
2023-01-04T08:36:34.785Z,74.11
2023-01-04T08:39:05.666Z,74.11
2023-01-04T08:42:04.819Z,74.30
2023-01-04T08:44:38.437Z,73.95
2023-01-04T08:47:05.785Z,73.54
2023-01-04T08:49:33.203Z,73.66
2023-01-04T08:52:00.702Z,73.76
2023-01-04T08:54:27.868Z,73.79
2023-01-04T08:56:55.013Z,73.62
2023-01-04T08:59:22.296Z,73.51
2023-01-04T09:01:49.571Z,73.27
2023-01-04T09:04:16.947Z,72.89
2023-01-04T09:06:44.263Z,72.58
2023-01-04T09:09:11.543Z,72.05
2023-01-04T09:11:39.095Z,71.68
2023-01-04T09:14:09.785Z,71.53
2023-01-04T09:16:38.334Z,71.21
2023-01-04T09:19:07.137Z,70.73
2023-01-04T09:21:34.946Z,70.43
2023-01-04T09:24:02.331Z,70.29
2023-01-04T09:26:29.576Z,70.67
2023-01-04T09:28:57.258Z,70.72
2023-01-04T09:31:27.730Z,70.50
2023-01-04T09:36:44.060Z,69.86
2023-01-04T09:39:20.765Z,69.38
2023-01-04T09:41:55.812Z,69.09
2023-01-04T09:48:00.820Z,68.91
2023-01-04T09:50:53.277Z,68.74
2023-01-04T09:53:23.760Z,68.88
2023-01-04T09:55:55.665Z,69.28
2023-01-04T09:58:32.306Z,69.16
2023-01-04T10:01:17.769Z,68.85
2023-01-04T10:04:20.222Z,68.18
2023-01-04T10:06:47.619Z,67.96
2023-01-04T10:09:17.194Z,66.35
2023-01-04T10:12:11.216Z,65.60
2023-01-04T10:14:44.383Z,65.04
2023-01-04T10:21:32.221Z,64.83
2023-01-04T10:24:12.901Z,64.58
2023-01-04T10:26:47.213Z,64.69
2023-01-04T10:29:39.301Z,63.69
2023-01-04T10:32:35.145Z,64.28
2023-01-04T10:35:15.295Z,64.06
2023-01-04T10:37:43.174Z,63.94
2023-01-04T10:40:16.614Z,63.83
2023-01-04T10:43:02.074Z,63.85
2023-01-04T10:45:57.095Z,64.06
2023-01-04T10:49:03.633Z,64.23
2023-01-04T10:51:55.213Z,64.15
2023-01-04T10:54:22.375Z,64.23
2023-01-04T10:57:05.274Z,64.80
2023-01-04T11:00:03.854Z,65.00
2023-01-04T11:02:40.633Z,64.86
2023-01-04T11:05:21.133Z,64.98
2023-01-04T11:07:58.696Z,65.12
2023-01-04T11:10:40.418Z,65.18
2023-01-04T11:13:07.854Z,65.05
2023-01-04T11:15:36.095Z,65.87
2023-01-04T11:18:05.419Z,66.02
2023-01-04T11:20:37.724Z,66.56
2023-01-04T11:23:12.964Z,66.81
2023-01-04T11:25:51.900Z,66.74
2023-01-04T11:28:47.744Z,66.86
2023-01-04T11:31:49.949Z,66.91
2023-01-04T11:34:17.140Z,66.87
2023-01-04T11:36:46.294Z,66.39
2023-01-04T11:39:27.091Z,66.60
2023-01-04T11:42:03.391Z,66.64
2023-01-04T11:44:35.202Z,66.71
2023-01-04T11:47:24.263Z,67.07
2023-01-04T11:49:53.177Z,67.30
2023-01-04T11:52:32.310Z,67.36
2023-01-04T11:55:25.681Z,67.84
2023-01-04T11:58:10.470Z,68.00
2023-01-04T12:00:39.454Z,67.71
2023-01-04T12:13:23.134Z,68.88
2023-01-04T12:15:50.387Z,70.15
2023-01-04T12:18:26.179Z,67.98
2023-01-04T12:20:53.435Z,63.57
2023-01-04T12:23:20.899Z,61.21
2023-01-04T12:25:51.824Z,59.09
2023-01-04T12:28:34.305Z,57.31
2023-01-04T12:31:20.542Z,54.81
2023-01-04T12:34:23.597Z,54.44
2023-01-04T12:36:50.780Z,54.22
2023-01-04T12:39:17.857Z,53.46
2023-01-04T12:42:04.068Z,53.11
2023-01-04T12:44:37.324Z,51.66
2023-01-04T12:47:44.016Z,50.51
2023-01-04T12:50:15.877Z,46.87
2023-01-04T12:53:10.831Z,46.32
2023-01-04T12:55:39.187Z,42.67
2023-01-04T12:58:58.227Z,40.78
2023-01-04T13:01:24.426Z,38.94
2023-01-04T13:04:06.084Z,36.63
2023-01-04T13:06:43.134Z,36.78
2023-01-04T13:09:24.539Z,35.78
2023-01-04T13:12:23.295Z,36.96
2023-01-04T13:14:55.095Z,37.88
2023-01-04T13:17:26.460Z,38.68
2023-01-04T13:19:54.015Z,39.05
2023-01-04T13:22:28.339Z,39.79
2023-01-04T13:24:59.017Z,38.66
2023-01-04T13:27:27.801Z,38.34
2023-01-04T13:29:55.473Z,37.22
2023-01-04T13:32:28.937Z,36.58
2023-01-04T13:35:14.442Z,35.96
2023-01-04T13:37:46.546Z,36.78
2023-01-04T13:40:37.675Z,36.95
2023-01-04T13:43:48.425Z,38.45
2023-01-04T13:46:19.292Z,39.88
2023-01-04T13:48:50.056Z,41.32
2023-01-04T13:51:30.643Z,42.62
2023-01-04T13:54:06.142Z,43.06
2023-01-04T13:56:34.897Z,43.38
2023-01-04T13:59:02.463Z,44.42
2023-01-04T14:01:34.716Z,46.57
2023-01-04T14:04:05.224Z,47.31
2023-01-04T14:06:42.256Z,48.12
2023-01-04T14:09:13.793Z,48.49
2023-01-04T14:12:06.087Z,49.43
2023-01-04T14:14:59.378Z,49.27
2023-01-04T14:17:43.028Z,49.67
2023-01-04T14:20:13.622Z,50.62
2023-01-04T14:22:46.841Z,51.44
2023-01-04T14:25:36.101Z,51.97
2023-01-04T14:28:28.869Z,52.47
2023-01-04T14:31:03.789Z,52.65
2023-01-04T14:33:51.584Z,53.17
2023-01-04T14:36:20.339Z,53.34
2023-01-04T14:39:07.299Z,53.32
2023-01-04T14:41:52.897Z,53.91
2023-01-04T14:44:23.096Z,54.24
2023-01-04T14:46:55.872Z,54.57
2023-01-04T14:49:23.370Z,54.82
2023-01-04T14:51:57.122Z,55.14
2023-01-04T14:54:26.141Z,55.16
2023-01-04T14:56:55.306Z,55.61
2023-01-04T14:59:24.507Z,55.60
2023-01-04T15:01:56.363Z,55.53
2023-01-04T15:04:24.550Z,55.93
2023-01-04T15:06:53.203Z,56.20
2023-01-04T15:09:21.017Z,56.89
2023-01-04T15:11:48.454Z,57.29
2023-01-04T15:14:16.019Z,57.26
2023-01-04T15:16:43.803Z,57.70
2023-01-04T15:19:11.261Z,58.06
2023-01-04T15:21:41.215Z,58.32
2023-01-04T15:24:10.061Z,58.73
2023-01-04T15:26:39.201Z,58.93
2023-01-04T15:29:07.107Z,59.10
2023-01-04T15:31:39.582Z,59.33
2023-01-04T15:34:08.943Z,60.14
2023-01-04T15:36:38.942Z,59.85
2023-01-04T15:39:07.072Z,60.27
2023-01-04T15:41:53.017Z,60.40
2023-01-04T15:44:20.184Z,60.64
2023-01-04T15:46:47.391Z,60.54
2023-01-04T15:49:17.596Z,60.69
2023-01-04T15:51:46.437Z,61.06
2023-01-04T15:54:13.829Z,61.42
2023-01-04T15:56:41.152Z,61.64
2023-01-04T15:59:08.615Z,61.66
2023-01-04T16:01:35.854Z,61.73
2023-01-04T16:04:05.708Z,61.95
2023-01-04T16:06:32.979Z,61.97
2023-01-04T16:09:02.105Z,62.44
2023-01-04T16:11:29.624Z,62.82
2023-01-04T16:13:56.903Z,62.58
2023-01-04T16:16:27.813Z,62.83
2023-01-04T16:18:57.380Z,62.67
2023-01-04T16:21:28.704Z,62.86
2023-01-04T16:24:05.094Z,62.66
2023-01-04T16:26:37.305Z,63.07
2023-01-04T16:29:04.737Z,62.87
2023-01-04T16:31:36.596Z,63.02
2023-01-04T16:34:04.934Z,62.93
2023-01-04T16:36:31.984Z,63.42
2023-01-04T16:38:59.300Z,63.25
2023-01-04T16:41:26.619Z,63.09
2023-01-04T16:43:55.665Z,63.53
2023-01-04T16:46:35.207Z,63.38
2023-01-04T16:49:04.261Z,63.75
2023-01-04T16:51:33.855Z,63.74
2023-01-04T16:54:06.915Z,64.06
2023-01-04T16:56:34.743Z,64.32
2023-01-04T16:59:02.815Z,64.26
2023-01-04T17:01:32.539Z,64.37
2023-01-04T17:04:02.301Z,63.95
2023-01-04T17:06:31.936Z,64.17
2023-01-04T17:09:00.188Z,64.46
2023-01-04T17:12:11.614Z,64.64
2023-01-04T17:14:15.575Z,64.87
2023-01-04T17:16:42.881Z,64.48
2023-01-04T17:19:09.976Z,64.84
2023-01-04T17:21:37.156Z,64.76
2023-01-04T17:24:04.535Z,64.70
2023-01-04T17:26:33.132Z,65.33
2023-01-04T17:29:01.773Z,64.96
2023-01-04T17:31:34.495Z,65.12
2023-01-04T17:34:02.496Z,65.21
2023-01-04T17:36:30.069Z,65.03
2023-01-04T17:38:59.663Z,65.25
2023-01-04T17:41:28.933Z,65.16
2023-01-04T17:44:01.851Z,65.18
2023-01-04T17:46:34.756Z,65.25
2023-01-04T17:51:53.182Z,65.39
2023-01-04T17:54:21.531Z,65.64
2023-01-04T17:56:48.542Z,65.56
2023-01-04T17:59:15.912Z,65.48
2023-01-04T18:01:43.259Z,65.62
2023-01-04T18:04:10.575Z,65.64
2023-01-04T18:06:39.232Z,65.44
2023-01-04T18:09:08.222Z,65.38
2023-01-04T18:11:36.217Z,65.69
2023-01-04T18:14:06.372Z,65.64
2023-01-04T18:16:57.184Z,65.52
2023-01-04T18:19:26.665Z,65.82
2023-01-04T18:21:53.910Z,64.77
2023-01-04T18:24:38.302Z,65.22
2023-01-04T18:27:24.974Z,65.24
2023-01-04T18:29:55.054Z,65.85
2023-01-04T18:32:23.765Z,65.86
2023-01-04T18:34:51.022Z,65.68
2023-01-04T18:37:19.241Z,65.75
2023-01-04T18:39:46.931Z,66.04
2023-01-04T18:42:14.255Z,66.20
2023-01-04T18:44:47.999Z,66.01
2023-01-04T18:47:21.099Z,66.08
2023-01-04T18:49:49.424Z,66.08
2023-01-04T18:52:17.471Z,66.04
2023-01-04T18:54:45.298Z,65.73
2023-01-04T18:57:12.855Z,65.92
2023-01-04T18:59:40.894Z,66.14
2023-01-04T19:02:08.340Z,66.02
2023-01-04T19:04:36.820Z,65.68
2023-01-04T19:07:04.220Z,66.13
2023-01-04T19:09:31.513Z,66.06
2023-01-04T19:11:58.789Z,66.65
2023-01-04T19:14:26.185Z,67.10
2023-01-04T19:16:53.693Z,66.81
2023-01-04T19:19:21.192Z,66.51
2023-01-04T19:21:48.454Z,66.92
2023-01-04T19:24:15.613Z,67.16
2023-01-04T19:26:42.944Z,67.57
2023-01-04T19:29:10.504Z,67.37
2023-01-04T19:31:37.741Z,67.50
2023-01-04T19:34:05.234Z,67.61
2023-01-04T19:36:32.534Z,67.71
2023-01-04T19:38:59.940Z,67.84
2023-01-04T19:41:33.759Z,67.90
2023-01-04T19:44:06.945Z,68.03
2023-01-04T19:46:34.563Z,68.16
2023-01-04T19:49:01.700Z,68.08
2023-01-04T19:51:29.049Z,68.04
2023-01-04T19:53:56.424Z,67.74
2023-01-04T19:56:23.943Z,67.96
2023-01-04T19:58:51.417Z,67.47
2023-01-04T20:01:21.077Z,67.65
2023-01-04T20:03:49.111Z,68.13
2023-01-04T20:06:18.176Z,68.13
2023-01-04T20:08:45.543Z,67.88
2023-01-04T20:11:13.300Z,67.98
2023-01-04T20:13:41.217Z,67.74
2023-01-04T20:16:08.831Z,67.44
2023-01-04T20:18:36.534Z,67.62
2023-01-04T20:21:13.099Z,67.76
2023-01-04T20:23:40.545Z,67.85
2023-01-04T20:26:13.544Z,67.84
2023-01-04T20:28:42.260Z,67.59
2023-01-04T20:31:11.257Z,67.61
2023-01-04T20:33:38.940Z,67.59
2023-01-04T20:36:13.738Z,67.54
2023-01-04T20:38:43.512Z,67.71
2023-01-04T20:41:19.908Z,68.01
2023-01-04T20:43:48.142Z,68.03
2023-01-04T20:46:30.666Z,67.94
2023-01-04T20:48:58.343Z,67.90
2023-01-04T20:51:28.301Z,67.75
2023-01-04T20:54:00.139Z,68.01
2023-01-04T20:56:30.100Z,68.12
2023-01-04T20:58:57.344Z,68.40
2023-01-04T21:01:26.643Z,67.80
2023-01-04T21:03:54.055Z,67.81
2023-01-04T21:06:23.417Z,68.10
2023-01-04T21:08:52.820Z,67.89
2023-01-04T21:11:20.666Z,67.86
2023-01-04T21:13:51.655Z,68.03
2023-01-04T21:16:19.032Z,68.31
2023-01-04T21:18:46.377Z,68.19
2023-01-04T21:21:16.415Z,69.09
2023-01-04T21:23:44.768Z,68.97
2023-01-04T21:26:15.780Z,68.71
2023-01-04T21:28:43.137Z,68.65
2023-01-04T21:31:16.748Z,68.75
2023-01-04T21:33:47.988Z,68.55
2023-01-04T21:36:25.300Z,68.37
2023-01-04T21:38:55.218Z,68.02
2023-01-04T21:41:26.670Z,68.64
2023-01-04T21:43:56.240Z,68.47
2023-01-04T21:46:24.830Z,68.35
2023-01-04T21:48:58.281Z,68.56
2023-01-04T21:51:25.584Z,68.52
2023-01-04T21:53:52.821Z,68.41
2023-01-04T21:56:22.815Z,68.29
2023-01-04T21:58:50.377Z,67.88
2023-01-04T22:01:23.826Z,68.59
2023-01-04T22:03:51.753Z,68.20
2023-01-04T22:06:20.916Z,68.69
2023-01-04T22:08:48.546Z,68.44
2023-01-04T22:11:16.660Z,68.40
2023-01-04T22:13:43.895Z,68.65
2023-01-04T22:16:14.386Z,68.71
2023-01-04T22:18:41.902Z,68.85
2023-01-04T22:21:12.655Z,68.74
2023-01-04T22:23:40.142Z,69.07
2023-01-04T22:26:07.698Z,69.01
2023-01-04T22:28:37.142Z,68.63
2023-01-04T22:31:07.629Z,68.75
2023-01-04T22:33:39.092Z,68.45
2023-01-04T22:36:07.777Z,68.46
2023-01-04T22:38:37.496Z,68.53
2023-01-04T22:41:13.657Z,68.41
2023-01-04T22:43:40.897Z,68.63
2023-01-04T22:46:12.740Z,68.65
2023-01-04T22:48:40.137Z,69.00
2023-01-04T22:51:13.904Z,68.72
2023-01-04T22:53:41.455Z,68.63
2023-01-04T22:56:21.035Z,68.17
2023-01-04T22:58:55.156Z,68.19
2023-01-04T23:01:28.270Z,68.25
2023-01-04T23:03:57.042Z,68.64
2023-01-04T23:06:25.605Z,68.28
2023-01-04T23:09:01.812Z,68.28
2023-01-04T23:11:30.821Z,68.55
2023-01-04T23:13:59.414Z,68.45
2023-01-04T23:16:32.285Z,68.36
2023-01-04T23:19:05.701Z,67.76
2023-01-04T23:21:34.494Z,68.22
2023-01-04T23:24:01.976Z,68.33
2023-01-04T23:26:30.965Z,68.17
2023-01-04T23:28:58.733Z,68.40
2023-01-04T23:31:28.447Z,68.52
2023-01-04T23:33:58.810Z,68.96
2023-01-04T23:36:29.949Z,68.89
2023-01-04T23:39:00.039Z,68.47
2023-01-04T23:41:47.135Z,68.46
2023-01-04T23:44:16.256Z,68.50
2023-01-04T23:46:43.697Z,68.37
2023-01-04T23:49:12.095Z,68.20
2023-01-04T23:51:39.820Z,67.50
2023-01-04T23:54:08.620Z,67.54
2023-01-04T23:56:37.112Z,67.84
2023-01-04T23:59:04.933Z,68.33
